createdAt,value
2022-12-31T00:00:03.558Z,6.28
2022-12-31T00:02:30.038Z,3.33
2022-12-31T00:04:56.403Z,6.60
2022-12-31T00:07:22.835Z,3.90
2022-12-31T00:09:49.223Z,5.30
2022-12-31T00:12:15.699Z,4.13
2022-12-31T00:14:42.128Z,4.60
2022-12-31T00:17:08.528Z,6.85
2022-12-31T00:19:34.926Z,5.20
2022-12-31T00:22:01.339Z,7.50
2022-12-31T00:24:31.023Z,3.53
2022-12-31T00:26:57.522Z,5.32
2022-12-31T00:29:23.940Z,6.63
2022-12-31T00:31:50.374Z,7.70
2022-12-31T00:34:16.767Z,7.35
2022-12-31T00:36:43.563Z,6.82
2022-12-31T00:39:10.290Z,5.32
2022-12-31T00:41:37.102Z,6.38
2022-12-31T00:44:04.090Z,8.32
2022-12-31T00:46:31.742Z,7.13
2022-12-31T00:48:58.363Z,5.90
2022-12-31T00:51:27.571Z,4.97
2022-12-31T00:56:22.039Z,5.05
2022-12-31T00:58:48.534Z,7.85
2022-12-31T01:01:15.013Z,4.80
2022-12-31T01:03:41.532Z,5.90
2022-12-31T01:06:08.577Z,8.63
2022-12-31T01:08:35.270Z,12.65
2022-12-31T01:11:22.579Z,6.10
2022-12-31T01:13:52.761Z,7.32
2022-12-31T01:16:26.216Z,7.53
2022-12-31T01:18:52.790Z,8.55
2022-12-31T01:21:19.943Z,5.88
2022-12-31T01:23:46.678Z,4.97
2022-12-31T01:26:13.881Z,6.38
2022-12-31T01:28:40.599Z,10.02
2022-12-31T01:31:08.288Z,11.82
2022-12-31T01:33:34.768Z,18.25
2022-12-31T01:36:12.754Z,5.88
2022-12-31T01:38:39.221Z,5.63
2022-12-31T01:41:06.008Z,7.18
2022-12-31T01:43:47.740Z,6.72
2022-12-31T01:46:17.784Z,8.20
2022-12-31T01:48:46.599Z,8.48
2022-12-31T01:51:13.004Z,7.88
2022-12-31T01:53:40.983Z,5.95
2022-12-31T01:56:07.610Z,13.30
2022-12-31T01:58:36.883Z,6.95
2022-12-31T02:01:03.548Z,7.82
2022-12-31T02:03:30.242Z,8.55
2022-12-31T02:06:10.951Z,10.35
2022-12-31T02:08:41.953Z,6.60
2022-12-31T02:11:22.841Z,8.60
2022-12-31T02:13:55.010Z,5.57
2022-12-31T02:16:24.678Z,7.93
2022-12-31T02:18:56.492Z,9.93
2022-12-31T02:21:26.001Z,8.57
2022-12-31T02:26:29.613Z,6.13
2022-12-31T02:29:14.599Z,10.43
2022-12-31T02:31:46.810Z,7.20
2022-12-31T02:34:17.915Z,8.00
2022-12-31T02:36:46.082Z,8.27
2022-12-31T02:39:13.412Z,9.27
2022-12-31T02:41:52.222Z,8.88
2022-12-31T02:44:29.222Z,6.88
2022-12-31T02:47:07.916Z,10.07
2022-12-31T02:49:37.374Z,7.22
2022-12-31T02:54:48.948Z,8.38
2022-12-31T02:57:15.361Z,5.25
2022-12-31T03:00:12.198Z,8.43
2022-12-31T03:02:39.982Z,8.63
2022-12-31T03:05:06.972Z,14.43
2022-12-31T03:07:33.524Z,9.40
2022-12-31T03:10:01.221Z,11.20
2022-12-31T03:12:48.648Z,11.27
2022-12-31T03:15:20.447Z,10.77
2022-12-31T03:18:02.264Z,11.95
2022-12-31T03:21:08.803Z,9.85
2022-12-31T03:23:50.296Z,8.32
2022-12-31T03:26:16.723Z,6.80
2022-12-31T03:28:47.953Z,7.57
2022-12-31T03:31:14.983Z,7.63
2022-12-31T03:33:41.827Z,13.10
2022-12-31T03:36:09.469Z,8.63
2022-12-31T03:38:35.913Z,12.00
2022-12-31T03:41:02.585Z,8.30
2022-12-31T03:43:28.987Z,6.75
2022-12-31T03:45:55.945Z,12.52
2022-12-31T03:48:23.314Z,10.77
2022-12-31T03:50:50.043Z,9.93
2022-12-31T03:53:16.918Z,10.32
2022-12-31T03:55:43.503Z,10.70
2022-12-31T03:58:09.997Z,7.18
2022-12-31T04:00:36.536Z,14.73
2022-12-31T04:03:02.929Z,13.65
2022-12-31T04:05:29.273Z,10.18
2022-12-31T04:07:56.528Z,11.35
2022-12-31T04:10:22.891Z,9.63
2022-12-31T04:12:49.314Z,7.00
2022-12-31T04:15:19.743Z,12.75
2022-12-31T04:17:46.704Z,9.48
2022-12-31T04:20:13.498Z,11.27
2022-12-31T04:22:39.905Z,11.32
2022-12-31T04:25:11.214Z,11.45
2022-12-31T04:27:41.449Z,8.65
2022-12-31T04:30:08.256Z,10.73
2022-12-31T04:32:34.684Z,15.20
2022-12-31T04:35:01.115Z,10.48
2022-12-31T04:37:27.516Z,12.02
2022-12-31T04:39:53.858Z,15.57
2022-12-31T04:42:20.305Z,13.07
2022-12-31T04:44:46.713Z,10.85
2022-12-31T04:47:13.909Z,10.52
2022-12-31T04:52:10.359Z,11.00
2022-12-31T04:54:36.733Z,8.65
2022-12-31T04:57:03.233Z,15.60
2022-12-31T04:59:29.588Z,14.60
2022-12-31T05:01:56.123Z,11.00
2022-12-31T05:04:22.597Z,11.95
2022-12-31T05:06:48.961Z,15.43
2022-12-31T05:09:15.349Z,13.82
2022-12-31T05:11:41.723Z,14.45
2022-12-31T05:14:08.092Z,10.50
2022-12-31T05:16:34.581Z,11.85
2022-12-31T05:19:01.056Z,7.97
2022-12-31T05:21:27.530Z,11.07
2022-12-31T05:23:54.032Z,12.63
2022-12-31T05:26:20.563Z,11.05
2022-12-31T05:28:46.947Z,13.60
2022-12-31T05:31:13.409Z,15.52
2022-12-31T05:33:39.828Z,15.00
2022-12-31T05:36:06.260Z,14.77
2022-12-31T05:38:32.766Z,12.35
2022-12-31T05:41:00.127Z,15.38
2022-12-31T05:43:26.590Z,12.50
2022-12-31T05:45:53.041Z,13.85
2022-12-31T05:48:19.507Z,7.07
2022-12-31T05:50:45.848Z,20.30
2022-12-31T05:53:12.193Z,11.32
2022-12-31T05:55:38.721Z,9.55
2022-12-31T05:58:05.208Z,12.60
2022-12-31T06:00:31.635Z,15.45
2022-12-31T06:02:58.139Z,14.15
2022-12-31T06:05:26.583Z,11.90
2022-12-31T06:07:53.239Z,10.10
2022-12-31T06:10:19.846Z,10.07
2022-12-31T06:12:46.301Z,14.05
2022-12-31T06:15:12.649Z,8.63
2022-12-31T06:17:39.125Z,16.20
2022-12-31T06:20:12.221Z,9.93
2022-12-31T06:22:39.394Z,8.63
2022-12-31T06:25:06.205Z,12.55
2022-12-31T06:27:32.585Z,12.93
2022-12-31T06:29:58.962Z,12.98
2022-12-31T06:32:25.344Z,11.68
2022-12-31T06:34:51.757Z,11.57
2022-12-31T06:37:18.170Z,13.27
2022-12-31T06:39:44.530Z,12.25
2022-12-31T06:42:10.885Z,13.15
2022-12-31T06:44:37.273Z,19.02
2022-12-31T06:47:03.695Z,13.32
2022-12-31T06:49:30.360Z,13.73
2022-12-31T06:51:56.805Z,15.25
2022-12-31T06:54:23.268Z,15.30
2022-12-31T06:56:49.801Z,12.65
2022-12-31T06:59:26.866Z,11.05
2022-12-31T07:02:16.337Z,14.23
2022-12-31T07:07:29.333Z,16.42
2022-12-31T07:10:05.843Z,14.50
2022-12-31T07:12:39.468Z,16.33
2022-12-31T07:15:11.759Z,12.13
2022-12-31T07:17:40.892Z,12.50
2022-12-31T07:20:10.252Z,16.23
2022-12-31T07:25:03.617Z,15.05
2022-12-31T07:27:36.016Z,16.98
2022-12-31T07:30:14.182Z,17.15
2022-12-31T07:32:40.489Z,15.05
2022-12-31T07:35:32.922Z,17.25
2022-12-31T07:38:10.275Z,15.25
2022-12-31T07:40:41.335Z,12.10
2022-12-31T07:43:12.845Z,15.90
2022-12-31T07:45:47.722Z,13.38
2022-12-31T07:48:20.559Z,14.75
2022-12-31T07:50:47.345Z,14.50
2022-12-31T07:53:13.796Z,10.77
2022-12-31T07:55:40.194Z,17.13
2022-12-31T07:58:15.864Z,16.45
2022-12-31T08:00:42.323Z,11.25
2022-12-31T08:03:17.344Z,11.75
2022-12-31T08:05:43.806Z,12.73
2022-12-31T08:08:29.146Z,12.05
2022-12-31T08:11:01.349Z,9.95
2022-12-31T08:13:27.782Z,10.98
2022-12-31T08:15:54.381Z,12.40
2022-12-31T08:18:20.927Z,9.50
2022-12-31T08:21:10.482Z,13.77
2022-12-31T08:23:43.966Z,13.95
2022-12-31T08:26:22.704Z,14.43
2022-12-31T08:29:05.040Z,12.48
2022-12-31T08:31:34.543Z,9.32
2022-12-31T08:36:38.504Z,11.73
2022-12-31T08:39:12.837Z,12.80
2022-12-31T08:41:46.886Z,9.45
2022-12-31T08:44:25.443Z,15.05
2022-12-31T08:47:03.988Z,11.50
2022-12-31T08:49:32.528Z,15.17
2022-12-31T08:51:59.530Z,14.03
2022-12-31T08:54:26.145Z,12.95
2022-12-31T08:57:11.880Z,12.57
2022-12-31T08:59:44.177Z,12.93
2022-12-31T09:02:10.647Z,12.10
2022-12-31T09:04:40.079Z,10.48
2022-12-31T09:09:33.179Z,12.40
2022-12-31T09:12:18.491Z,14.45
2022-12-31T09:14:57.862Z,10.43
2022-12-31T09:19:50.812Z,11.35
2022-12-31T09:22:17.416Z,11.98
2022-12-31T09:24:44.046Z,10.85
2022-12-31T09:27:20.102Z,8.32
2022-12-31T09:29:51.985Z,13.25
2022-12-31T09:32:18.471Z,10.20
2022-12-31T09:34:48.166Z,13.73
2022-12-31T09:37:18.016Z,13.55
2022-12-31T09:39:45.618Z,11.93
2022-12-31T09:42:18.349Z,15.00
2022-12-31T09:45:03.426Z,12.75
2022-12-31T09:47:48.548Z,10.52
2022-12-31T09:50:27.407Z,10.55
2022-12-31T09:53:08.991Z,9.73
2022-12-31T09:55:38.542Z,10.68
2022-12-31T09:58:17.006Z,10.45
2022-12-31T10:00:46.813Z,8.43
2022-12-31T10:03:34.146Z,8.70
2022-12-31T10:06:00.596Z,12.75
2022-12-31T10:08:42.510Z,7.70
2022-12-31T10:11:19.649Z,7.88
2022-12-31T10:13:49.004Z,8.55
2022-12-31T10:16:21.404Z,9.15
2022-12-31T10:19:06.089Z,8.20
2022-12-31T10:21:51.161Z,7.60
2022-12-31T10:24:36.423Z,6.68
2022-12-31T10:27:02.848Z,10.27
2022-12-31T10:29:32.094Z,9.02
2022-12-31T10:32:04.525Z,10.27
2022-12-31T10:34:34.617Z,13.25
2022-12-31T10:37:08.381Z,10.38
2022-12-31T10:39:34.757Z,9.00
2022-12-31T10:42:10.398Z,7.22
2022-12-31T10:44:39.844Z,7.97
2022-12-31T10:49:32.680Z,6.18
2022-12-31T10:52:18.003Z,8.43
2022-12-31T10:55:19.787Z,8.73
2022-12-31T10:57:51.971Z,9.18
2022-12-31T11:00:27.272Z,6.20
2022-12-31T11:03:12.117Z,7.10
2022-12-31T11:05:47.824Z,8.63
2022-12-31T11:08:14.275Z,7.57
2022-12-31T11:10:43.707Z,7.80
2022-12-31T11:16:12.143Z,8.65
2022-12-31T11:18:47.609Z,7.20
2022-12-31T11:21:28.245Z,5.90
2022-12-31T11:24:13.492Z,7.28
2022-12-31T11:26:58.585Z,5.68
2022-12-31T11:29:25.029Z,7.75
2022-12-31T11:31:52.428Z,9.52
2022-12-31T11:34:18.781Z,4.88
2022-12-31T11:37:04.166Z,7.43
2022-12-31T11:39:35.653Z,8.93
2022-12-31T11:42:04.886Z,6.20
2022-12-31T11:44:50.803Z,8.20
2022-12-31T11:47:29.499Z,5.57
2022-12-31T11:49:55.995Z,4.88
2022-12-31T11:52:33.473Z,7.45
2022-12-31T11:55:02.912Z,6.43
2022-12-31T12:00:04.744Z,7.20
2022-12-31T12:02:35.147Z,6.95
2022-12-31T12:05:10.108Z,6.32
2022-12-31T12:07:37.415Z,8.85
2022-12-31T12:10:14.139Z,6.80
2022-12-31T12:12:40.877Z,6.97
2022-12-31T12:15:08.638Z,6.28
2022-12-31T12:17:35.497Z,4.57
2022-12-31T12:20:22.272Z,5.88
2022-12-31T12:22:56.445Z,4.18
2022-12-31T12:25:25.347Z,4.53
2022-12-31T12:27:52.129Z,4.90
2022-12-31T12:30:22.996Z,5.07
2022-12-31T12:32:56.748Z,7.53
2022-12-31T12:35:24.734Z,5.32
2022-12-31T12:37:59.136Z,6.18
2022-12-31T12:40:33.328Z,7.93
2022-12-31T12:43:01.417Z,4.53
2022-12-31T12:45:30.120Z,6.18
2022-12-31T12:47:59.567Z,4.43
2022-12-31T12:53:16.207Z,4.57
2022-12-31T12:56:15.243Z,4.63
2022-12-31T12:58:56.751Z,4.53
2022-12-31T13:01:23.368Z,4.18
2022-12-31T13:04:32.542Z,4.38
2022-12-31T13:06:42.478Z,4.85
2022-12-31T13:09:17.178Z,4.65
2022-12-31T13:11:52.813Z,4.97
2022-12-31T13:14:21.978Z,4.70
2022-12-31T13:16:53.966Z,5.68
2022-12-31T13:19:20.406Z,5.28
2022-12-31T13:21:55.590Z,3.53
2022-12-31T13:24:22.019Z,4.47
2022-12-31T13:27:06.617Z,4.82
2022-12-31T13:29:34.067Z,3.83
2022-12-31T13:32:02.099Z,4.63
2022-12-31T13:34:33.793Z,4.22
2022-12-31T13:37:03.428Z,3.90
2022-12-31T13:39:32.004Z,3.10
2022-12-31T13:42:05.446Z,4.97
2022-12-31T13:45:10.375Z,4.85
2022-12-31T13:47:39.362Z,7.57
2022-12-31T13:50:15.164Z,5.63
2022-12-31T13:52:45.279Z,5.00
2022-12-31T13:55:17.526Z,8.05
2022-12-31T13:58:16.583Z,7.25
2022-12-31T14:01:09.120Z,5.45
2022-12-31T14:03:52.280Z,6.85
2022-12-31T14:06:37.746Z,4.10
2022-12-31T14:09:05.262Z,6.35
2022-12-31T14:11:34.518Z,4.97
2022-12-31T14:14:15.759Z,3.72
2022-12-31T14:17:00.708Z,5.90
2022-12-31T14:19:34.200Z,2.65
2022-12-31T14:22:20.319Z,4.25
2022-12-31T14:24:51.192Z,4.40
2022-12-31T14:27:49.818Z,3.15
2022-12-31T14:30:28.337Z,3.72
2022-12-31T14:33:00.871Z,4.07
2022-12-31T14:35:36.774Z,3.20
2022-12-31T14:38:28.539Z,2.65
2022-12-31T14:41:19.065Z,2.92
2022-12-31T14:43:45.459Z,3.35
2022-12-31T14:46:32.281Z,3.17
2022-12-31T14:49:17.851Z,3.92
2022-12-31T14:51:44.834Z,2.45
2022-12-31T14:54:29.022Z,2.63
2022-12-31T14:56:55.802Z,4.28
2022-12-31T14:59:25.412Z,4.45
2022-12-31T15:01:52.362Z,4.40
2022-12-31T15:04:39.877Z,3.20
2022-12-31T15:07:16.663Z,3.25
2022-12-31T15:09:52.079Z,4.43
2022-12-31T15:12:37.060Z,3.40
2022-12-31T15:15:22.620Z,3.35
2022-12-31T15:17:57.087Z,2.75
2022-12-31T15:20:32.014Z,2.90
2022-12-31T15:22:58.776Z,3.42
2022-12-31T15:25:38.654Z,2.95
2022-12-31T15:28:27.528Z,3.97
2022-12-31T15:30:56.044Z,2.47
2022-12-31T15:33:28.969Z,2.47
2022-12-31T15:35:56.789Z,2.40
2022-12-31T15:38:30.951Z,3.75
2022-12-31T15:40:57.544Z,3.22
2022-12-31T15:43:24.039Z,4.15
2022-12-31T15:45:52.416Z,2.90
2022-12-31T15:48:22.332Z,3.30
2022-12-31T15:50:51.351Z,4.07
2022-12-31T15:53:33.609Z,3.28
2022-12-31T15:56:01.471Z,3.22
2022-12-31T15:58:30.927Z,3.95
2022-12-31T16:03:25.823Z,3.33
2022-12-31T16:05:54.260Z,2.63
2022-12-31T16:08:24.834Z,4.10
2022-12-31T16:10:51.368Z,2.30
2022-12-31T16:13:19.644Z,3.67
2022-12-31T16:15:48.637Z,2.30
2022-12-31T16:18:20.817Z,2.92
2022-12-31T16:20:49.446Z,2.85
2022-12-31T16:23:20.003Z,3.42
2022-12-31T16:25:46.549Z,2.78
2022-12-31T16:28:16.708Z,3.45
2022-12-31T16:30:43.474Z,4.88
2022-12-31T16:33:14.491Z,5.47
2022-12-31T16:35:40.947Z,3.88
2022-12-31T16:38:07.724Z,6.18
2022-12-31T16:40:34.381Z,5.13
2022-12-31T16:43:01.220Z,5.22
2022-12-31T16:45:36.883Z,6.75
2022-12-31T16:48:17.177Z,6.63
2022-12-31T16:50:45.610Z,7.85
2022-12-31T16:53:13.842Z,6.30
2022-12-31T16:55:43.605Z,6.50
2022-12-31T16:58:19.127Z,5.50
2022-12-31T17:00:46.265Z,4.07
2022-12-31T17:03:23.333Z,6.13
2022-12-31T17:05:58.104Z,5.82
2022-12-31T17:08:26.630Z,5.28
2022-12-31T17:10:53.415Z,7.23
2022-12-31T17:13:27.963Z,4.95
2022-12-31T17:15:56.732Z,6.47
2022-12-31T17:18:25.543Z,5.03
2022-12-31T17:20:56.024Z,5.47
2022-12-31T17:23:22.544Z,5.13
2022-12-31T17:25:49.114Z,4.88
2022-12-31T17:28:18.424Z,5.85
2022-12-31T17:30:44.934Z,6.25
2022-12-31T17:33:11.313Z,5.85
2022-12-31T17:35:42.107Z,6.78
2022-12-31T17:38:23.807Z,6.68
2022-12-31T17:40:52.464Z,7.07
2022-12-31T17:43:20.400Z,5.30
2022-12-31T17:45:47.431Z,6.65
2022-12-31T17:48:17.905Z,8.48
2022-12-31T17:50:51.855Z,6.60
2022-12-31T17:53:18.291Z,7.43
2022-12-31T17:55:45.918Z,6.43
2022-12-31T17:58:29.294Z,6.53
2022-12-31T18:00:56.317Z,9.30
2022-12-31T18:03:22.799Z,6.70
2022-12-31T18:05:49.224Z,9.68
2022-12-31T18:08:15.592Z,7.30
2022-12-31T18:10:42.811Z,8.25
2022-12-31T18:13:15.302Z,6.40
2022-12-31T18:15:41.658Z,10.13
2022-12-31T18:18:24.315Z,11.90
2022-12-31T18:20:53.658Z,10.40
2022-12-31T18:23:22.722Z,12.07
2022-12-31T18:25:49.624Z,18.73
2022-12-31T18:28:16.089Z,23.17
2022-12-31T18:30:43.312Z,15.52
2022-12-31T18:33:11.788Z,10.18
2022-12-31T18:36:07.699Z,14.00
2022-12-31T18:38:26.553Z,9.57
2022-12-31T18:40:57.065Z,13.48
2022-12-31T18:43:23.589Z,7.05
2022-12-31T18:45:51.189Z,11.10
2022-12-31T18:48:18.122Z,8.90
2022-12-31T18:50:44.916Z,10.02
2022-12-31T18:53:19.301Z,8.18
2022-12-31T18:55:50.542Z,12.02
2022-12-31T18:58:16.960Z,10.55
2022-12-31T19:00:43.839Z,7.00
2022-12-31T19:03:13.770Z,8.93
2022-12-31T19:05:40.225Z,10.35
2022-12-31T19:08:06.676Z,8.63
2022-12-31T19:10:33.796Z,6.07
2022-12-31T19:13:00.227Z,7.45
2022-12-31T19:15:32.969Z,6.38
2022-12-31T19:18:00.059Z,10.25
2022-12-31T19:20:26.538Z,8.98
2022-12-31T19:22:52.958Z,7.85
2022-12-31T19:25:19.359Z,6.13
2022-12-31T19:27:45.930Z,7.38
2022-12-31T19:30:23.524Z,6.85
2022-12-31T19:32:50.440Z,8.15
2022-12-31T19:35:17.182Z,7.10
2022-12-31T19:37:44.468Z,6.88
2022-12-31T19:40:13.319Z,10.25
2022-12-31T19:42:39.660Z,6.82
2022-12-31T19:45:06.230Z,7.07
2022-12-31T19:47:32.590Z,7.28
2022-12-31T19:49:58.941Z,6.95
2022-12-31T19:52:25.318Z,7.38
2022-12-31T19:54:51.673Z,8.60
2022-12-31T19:57:18.076Z,7.28
2022-12-31T19:59:44.519Z,8.27
2022-12-31T20:02:11.117Z,9.15
2022-12-31T20:04:37.731Z,8.98
2022-12-31T20:07:04.182Z,10.07
2022-12-31T20:09:30.565Z,16.83
2022-12-31T20:11:56.938Z,23.63
2022-12-31T20:14:23.384Z,26.70
2022-12-31T20:16:50.457Z,26.73
2022-12-31T20:19:16.982Z,22.67
2022-12-31T20:21:45.029Z,24.15
2022-12-31T20:24:11.459Z,19.27
2022-12-31T20:26:37.987Z,20.75
2022-12-31T20:29:04.491Z,19.98
2022-12-31T20:31:30.878Z,16.20
2022-12-31T20:33:57.340Z,15.35
2022-12-31T20:36:24.048Z,15.30
2022-12-31T20:38:50.539Z,13.55
2022-12-31T20:41:18.622Z,16.33
2022-12-31T20:43:45.443Z,14.07
2022-12-31T20:46:15.570Z,13.77
2022-12-31T20:48:47.971Z,12.45
2022-12-31T20:51:15.229Z,12.63
2022-12-31T20:53:45.953Z,12.85
2022-12-31T20:56:12.582Z,12.93
2022-12-31T20:58:42.311Z,18.95
2022-12-31T21:01:09.894Z,17.55
2022-12-31T21:04:04.123Z,21.13
2022-12-31T21:06:24.157Z,17.60
2022-12-31T21:08:50.739Z,18.13
2022-12-31T21:11:36.066Z,16.85
2022-12-31T21:14:06.757Z,19.77
2022-12-31T21:16:33.134Z,17.15
2022-12-31T21:18:59.647Z,20.90
2022-12-31T21:21:26.117Z,16.05
2022-12-31T21:23:52.557Z,22.27
2022-12-31T21:26:19.143Z,23.67
2022-12-31T21:28:45.644Z,20.45
2022-12-31T21:31:13.576Z,20.50
2022-12-31T21:33:43.196Z,18.80
2022-12-31T21:36:09.672Z,20.33
2022-12-31T21:38:36.369Z,19.15
2022-12-31T21:41:03.646Z,17.95
2022-12-31T21:43:30.115Z,20.73
2022-12-31T21:46:00.744Z,24.25
2022-12-31T21:48:27.246Z,21.15
2022-12-31T21:50:55.203Z,23.27
2022-12-31T21:53:26.176Z,19.88
2022-12-31T21:56:16.106Z,23.65
2022-12-31T21:58:47.184Z,20.77
2022-12-31T22:01:34.735Z,25.17
2022-12-31T22:04:01.182Z,21.27
2022-12-31T22:06:27.576Z,25.23
2022-12-31T22:08:55.274Z,21.30
2022-12-31T22:11:23.351Z,26.75
2022-12-31T22:13:50.608Z,21.17
2022-12-31T22:16:19.063Z,20.52
2022-12-31T22:18:45.721Z,29.38
2022-12-31T22:21:19.830Z,23.92
2022-12-31T22:23:54.154Z,22.90
2022-12-31T22:26:22.035Z,22.52
2022-12-31T22:28:48.429Z,23.75
2022-12-31T22:31:19.531Z,23.13
2022-12-31T22:33:46.391Z,24.33
2022-12-31T22:36:14.282Z,16.60
2022-12-31T22:38:40.749Z,21.38
2022-12-31T22:41:14.581Z,21.08
2022-12-31T22:43:45.068Z,21.80
2022-12-31T22:46:18.652Z,20.00
2022-12-31T22:48:45.921Z,17.73
2022-12-31T22:51:13.375Z,19.92
2022-12-31T22:53:41.109Z,25.63
2022-12-31T22:56:07.956Z,19.67
2022-12-31T22:58:34.774Z,17.92
2022-12-31T23:01:04.076Z,20.17
2022-12-31T23:03:30.607Z,34.47
2022-12-31T23:05:57.092Z,64.28
2022-12-31T23:08:24.188Z,77.57
2022-12-31T23:11:00.940Z,71.45
2022-12-31T23:13:50.674Z,68.88
2022-12-31T23:16:36.172Z,66.70
2022-12-31T23:19:21.547Z,62.85
2022-12-31T23:22:06.568Z,62.25
2022-12-31T23:24:32.995Z,62.08
2022-12-31T23:26:59.511Z,65.28
2022-12-31T23:29:26.238Z,67.82
2022-12-31T23:31:53.091Z,56.72
2022-12-31T23:34:19.687Z,56.03
2022-12-31T23:36:46.278Z,48.08
2022-12-31T23:39:13.519Z,48.45
2022-12-31T23:41:40.019Z,48.78
2022-12-31T23:44:06.494Z,48.17
2022-12-31T23:46:32.924Z,59.88
2022-12-31T23:48:59.304Z,52.47
2022-12-31T23:51:25.782Z,66.55
2022-12-31T23:53:52.298Z,70.10
2022-12-31T23:56:23.579Z,82.72
2022-12-31T23:58:57.663Z,90.75
